createdAt,value
2022-11-24T00:00:41.628Z,95827.94
2022-11-24T00:02:14.001Z,95824.97
2022-11-24T00:03:46.781Z,95818.22
2022-11-24T00:05:18.542Z,95809.16
2022-11-24T00:06:50.403Z,95809.81
2022-11-24T00:08:22.054Z,95815.91
2022-11-24T00:09:53.809Z,95802.75
2022-11-24T00:11:26.056Z,95812.25
2022-11-24T00:12:59.018Z,95814.88
2022-11-24T00:14:30.679Z,95811.66
2022-11-24T00:16:08.319Z,95812.88
2022-11-24T00:17:40.029Z,95819.63
2022-11-24T00:19:15.776Z,95817.06
2022-11-24T00:20:52.085Z,95814.75
2022-11-24T00:22:23.743Z,95811.22
2022-11-24T00:23:55.525Z,95813.97
2022-11-24T00:25:27.137Z,95820.41
2022-11-24T00:26:58.772Z,95815.75
2022-11-24T00:28:32.156Z,95821.41
2022-11-24T00:30:04.634Z,95821.41
2022-11-24T00:31:37.288Z,95825.94
2022-11-24T00:33:09.082Z,95824.06
2022-11-24T00:34:42.035Z,95825.16
2022-11-24T00:36:13.925Z,95819.41
2022-11-24T00:37:45.572Z,95821.31
2022-11-24T00:39:17.491Z,95822.84
2022-11-24T00:40:49.117Z,95820.88
2022-11-24T00:42:20.724Z,95822.41
2022-11-24T00:43:53.972Z,95819.75
2022-11-24T00:45:25.721Z,95824.19
2022-11-24T00:46:57.638Z,95815.47
2022-11-24T00:48:30.036Z,95832.16
2022-11-24T00:50:01.657Z,95826.84
2022-11-24T00:51:33.327Z,95831.91
2022-11-24T00:53:04.953Z,95834.56
2022-11-24T00:54:36.568Z,95829.47
2022-11-24T00:56:08.462Z,95835.97
2022-11-24T00:57:40.213Z,95829.69
2022-11-24T00:59:13.415Z,95833.13
2022-11-24T01:00:45.186Z,95837.84
2022-11-24T01:02:17.015Z,95845.38
2022-11-24T01:03:48.770Z,95854.53
2022-11-24T01:05:20.709Z,95843.59
2022-11-24T01:06:52.341Z,95850.25
2022-11-24T01:08:23.947Z,95849.81
2022-11-24T01:09:55.549Z,95854.19
2022-11-24T01:11:28.157Z,95859.94
2022-11-24T01:13:00.021Z,95864.03
2022-11-24T01:14:33.617Z,95867.47
2022-11-24T01:16:06.066Z,95865.91
2022-11-24T01:17:37.714Z,95876.00
2022-11-24T01:19:09.332Z,95869.91
2022-11-24T01:20:40.974Z,95876.31
2022-11-24T01:22:12.597Z,95888.03
2022-11-24T01:23:44.275Z,95891.34
2022-11-24T01:25:16.246Z,95889.47
2022-11-24T01:26:48.027Z,95888.03
2022-11-24T01:28:19.848Z,95895.88
2022-11-24T01:29:52.826Z,95903.06
2022-11-24T01:31:24.820Z,95894.00
2022-11-24T01:32:56.486Z,95893.22
2022-11-24T01:34:28.217Z,95894.00
2022-11-24T01:35:59.808Z,95896.97
2022-11-24T01:37:31.503Z,95893.22
2022-11-24T01:39:08.032Z,95893.88
2022-11-24T01:40:39.770Z,95897.31
2022-11-24T01:42:11.496Z,95916.31
2022-11-24T01:43:43.583Z,95915.44
2022-11-24T01:45:32.332Z,95914.66
2022-11-24T01:47:05.424Z,95921.06
2022-11-24T01:48:38.452Z,95920.31
2022-11-24T01:50:11.574Z,95921.75
2022-11-24T01:51:45.092Z,95918.75
2022-11-24T01:53:16.901Z,95927.16
2022-11-24T01:54:50.208Z,95932.91
2022-11-24T01:56:21.963Z,95928.47
2022-11-24T01:57:55.259Z,95934.09
2022-11-24T01:59:27.017Z,95936.09
2022-11-24T02:01:00.474Z,95938.22
2022-11-24T02:02:32.229Z,95924.84
2022-11-24T02:04:04.613Z,95928.47
2022-11-24T02:05:39.107Z,95931.00
2022-11-24T02:07:10.978Z,95928.81
2022-11-24T02:08:44.007Z,95926.25
2022-11-24T02:10:15.978Z,95928.13
2022-11-24T02:11:47.702Z,95927.69
2022-11-24T02:13:19.342Z,95937.19
2022-11-24T02:14:50.941Z,95931.78
2022-11-24T02:16:23.974Z,95929.38
2022-11-24T02:17:55.648Z,95939.31
2022-11-24T02:19:33.771Z,95937.75
2022-11-24T02:21:05.724Z,95939.31
2022-11-24T02:22:40.734Z,95948.47
2022-11-24T02:24:14.913Z,95942.41
2022-11-24T02:25:52.008Z,95943.59
2022-11-24T02:27:24.954Z,95939.31
2022-11-24T02:28:56.679Z,95939.97
2022-11-24T02:30:28.339Z,95941.50
2022-11-24T02:32:01.731Z,95956.66
2022-11-24T02:33:33.641Z,95949.47
2022-11-24T02:35:06.271Z,95956.75
2022-11-24T02:36:38.028Z,95959.97
2022-11-24T02:38:11.547Z,95955.44
2022-11-24T02:39:43.173Z,95956.88
2022-11-24T02:41:16.418Z,95957.88
2022-11-24T02:42:49.366Z,95949.81
2022-11-24T02:44:22.019Z,95957.13
2022-11-24T02:45:53.638Z,95962.09
2022-11-24T02:47:25.356Z,95970.25
2022-11-24T02:48:57.168Z,95962.09
2022-11-24T02:50:28.894Z,95970.72
2022-11-24T02:52:00.640Z,95981.50
2022-11-24T02:53:32.459Z,95969.38
2022-11-24T02:55:04.579Z,95974.25
2022-11-24T02:56:36.154Z,95970.03
2022-11-24T02:58:09.162Z,95970.72
2022-11-24T02:59:40.811Z,95980.53
2022-11-24T03:01:12.457Z,95976.22
2022-11-24T03:02:44.153Z,95972.16
2022-11-24T03:04:15.799Z,95965.16
2022-11-24T03:05:47.588Z,95972.34
2022-11-24T03:07:19.354Z,95964.94
2022-11-24T03:08:51.004Z,95968.69
2022-11-24T03:10:22.642Z,95963.84
2022-11-24T03:11:54.205Z,95961.84
2022-11-24T03:13:27.153Z,95973.78
2022-11-24T03:14:58.787Z,95964.28
2022-11-24T03:16:30.421Z,95974.88
2022-11-24T03:18:02.094Z,95976.66
2022-11-24T03:19:33.696Z,95976.00
2022-11-24T03:21:05.581Z,95981.06
2022-11-24T03:22:37.237Z,95979.97
2022-11-24T03:24:09.052Z,95987.03
2022-11-24T03:25:40.662Z,95991.56
2022-11-24T03:27:12.245Z,95992.34
2022-11-24T03:28:45.210Z,95986.50
2022-11-24T03:30:16.960Z,95989.13
2022-11-24T03:31:48.572Z,95989.91
2022-11-24T03:33:20.168Z,95996.44
2022-11-24T03:34:51.791Z,95980.84
2022-11-24T03:36:23.458Z,95987.59
2022-11-24T03:37:55.062Z,95982.63
2022-11-24T03:39:26.662Z,95977.97
2022-11-24T03:40:58.278Z,95980.31
2022-11-24T03:42:29.912Z,95971.47
2022-11-24T03:44:02.925Z,95976.66
2022-11-24T03:45:49.824Z,95980.53
2022-11-24T03:47:21.473Z,95976.66
2022-11-24T03:48:53.142Z,95973.44
2022-11-24T03:50:24.746Z,95979.19
2022-11-24T03:51:56.332Z,95986.03
2022-11-24T03:53:28.829Z,95986.81
2022-11-24T03:55:00.428Z,95986.50
2022-11-24T03:56:32.051Z,95992.56
2022-11-24T03:58:03.659Z,95999.34
2022-11-24T03:59:36.627Z,95993.47
2022-11-24T04:01:08.281Z,95997.44
2022-11-24T04:02:39.920Z,95999.31
2022-11-24T04:04:11.750Z,95996.31
2022-11-24T04:05:43.404Z,95999.44
2022-11-24T04:07:15.069Z,95998.97
2022-11-24T04:08:46.696Z,96002.09
2022-11-24T04:10:18.311Z,96004.28
2022-11-24T04:12:08.513Z,96002.53
2022-11-24T04:13:40.144Z,96006.31
2022-11-24T04:15:14.155Z,96003.19
2022-11-24T04:16:45.756Z,96013.25
2022-11-24T04:18:17.387Z,96018.22
2022-11-24T04:19:49.384Z,96016.25
2022-11-24T04:21:21.075Z,96016.13
2022-11-24T04:22:52.711Z,96028.84
2022-11-24T04:24:24.314Z,96029.63
2022-11-24T04:25:56.270Z,96031.50
2022-11-24T04:27:27.982Z,96034.69
2022-11-24T04:28:59.621Z,96025.88
2022-11-24T04:30:32.612Z,96029.28
2022-11-24T04:32:04.701Z,96027.84
2022-11-24T04:33:36.344Z,96024.53
2022-11-24T04:35:08.525Z,96033.00
2022-11-24T04:36:40.975Z,96035.81
2022-11-24T04:38:12.609Z,96018.31
2022-11-24T04:39:44.973Z,96024.06
2022-11-24T04:41:16.610Z,96023.16
2022-11-24T04:42:57.472Z,96028.59
2022-11-24T04:44:29.114Z,96021.41
2022-11-24T04:46:02.098Z,96028.16
2022-11-24T04:47:33.976Z,96035.31
2022-11-24T04:49:05.759Z,96026.47
2022-11-24T04:50:37.375Z,96040.06
2022-11-24T04:52:09.029Z,96032.41
2022-11-24T04:53:40.649Z,96031.88
2022-11-24T04:55:12.301Z,96031.88
2022-11-24T04:56:44.087Z,96043.81
2022-11-24T04:58:15.745Z,96047.34
2022-11-24T04:59:47.348Z,96045.25
2022-11-24T05:01:20.343Z,96050.22
2022-11-24T05:02:51.972Z,96050.03
2022-11-24T05:04:23.625Z,96058.72
2022-11-24T05:05:58.101Z,96056.06
2022-11-24T05:07:29.809Z,96060.09
2022-11-24T05:09:01.490Z,96063.53
2022-11-24T05:10:35.763Z,96070.00
2022-11-24T05:12:07.440Z,96076.19
2022-11-24T05:13:39.060Z,96072.66
2022-11-24T05:15:11.063Z,96075.84
2022-11-24T05:16:44.052Z,96074.75
2022-11-24T05:18:16.610Z,96073.31
2022-11-24T05:19:48.226Z,96075.84
2022-11-24T05:21:19.910Z,96077.41
2022-11-24T05:22:51.558Z,96082.06
2022-11-24T05:24:23.205Z,96074.44
2022-11-24T05:25:59.257Z,96075.19
2022-11-24T05:27:30.878Z,96076.75
2022-11-24T05:29:02.521Z,96082.28
2022-11-24T05:30:34.720Z,96082.94
2022-11-24T05:32:07.753Z,96081.59
2022-11-24T05:33:39.910Z,96089.88
2022-11-24T05:35:11.836Z,96082.47
2022-11-24T05:36:52.890Z,96078.84
2022-11-24T05:38:24.555Z,96078.50
2022-11-24T05:39:56.204Z,96076.41
2022-11-24T05:41:27.929Z,96078.91
2022-11-24T05:42:59.643Z,96087.19
2022-11-24T05:44:31.375Z,96095.13
2022-11-24T05:46:03.234Z,96094.34
2022-11-24T05:47:36.419Z,96087.63
2022-11-24T05:49:08.193Z,96089.94
2022-11-24T05:50:39.849Z,96083.88
2022-11-24T05:52:11.457Z,96090.88
2022-11-24T05:53:43.049Z,96090.09
2022-11-24T05:55:15.187Z,96090.66
2022-11-24T05:56:46.824Z,96095.25
2022-11-24T05:58:18.480Z,96094.28
2022-11-24T05:59:50.089Z,96091.06
2022-11-24T06:01:21.722Z,96098.38
2022-11-24T06:02:54.806Z,96094.94
2022-11-24T06:04:26.542Z,96096.63
2022-11-24T06:05:58.266Z,96088.66
2022-11-24T06:07:29.980Z,96110.66
2022-11-24T06:09:01.634Z,96100.03
2022-11-24T06:10:33.271Z,96094.94
2022-11-24T06:12:05.983Z,96101.66
2022-11-24T06:13:37.668Z,96105.22
2022-11-24T06:15:10.068Z,96108.31
2022-11-24T06:16:41.762Z,96103.16
2022-11-24T06:18:14.819Z,96101.59
2022-11-24T06:19:50.039Z,96094.63
2022-11-24T06:21:21.654Z,96103.19
2022-11-24T06:22:53.482Z,96103.53
2022-11-24T06:24:25.209Z,96102.31
2022-11-24T06:25:57.595Z,96105.72
2022-11-24T06:27:29.270Z,96100.09
2022-11-24T06:29:01.332Z,96103.69
2022-11-24T06:30:33.011Z,96096.03
2022-11-24T06:32:05.221Z,96102.44
2022-11-24T06:33:38.352Z,96095.72
2022-11-24T06:35:10.010Z,96107.41
2022-11-24T06:36:41.671Z,96107.41
2022-11-24T06:38:13.358Z,96107.28
2022-11-24T06:39:44.980Z,96108.84
2022-11-24T06:41:16.706Z,96103.19
2022-11-24T06:42:51.240Z,96109.88
2022-11-24T06:44:22.926Z,96105.22
2022-11-24T06:45:54.607Z,96101.31
2022-11-24T06:47:26.292Z,96107.72
2022-11-24T06:49:02.405Z,96110.06
2022-11-24T06:50:34.050Z,96118.81
2022-11-24T06:52:05.705Z,96120.97
2022-11-24T06:53:38.273Z,96116.34
2022-11-24T06:55:10.033Z,96116.66
2022-11-24T06:56:41.667Z,96109.47
2022-11-24T06:58:13.449Z,96102.59
2022-11-24T06:59:45.128Z,96112.53
2022-11-24T07:01:17.176Z,96106.78
2022-11-24T07:02:48.912Z,96106.13
2022-11-24T07:04:21.930Z,96103.91
2022-11-24T07:05:56.338Z,96100.81
2022-11-24T07:07:28.178Z,96120.81
2022-11-24T07:08:59.882Z,96123.69
2022-11-24T07:10:31.498Z,96121.50
2022-11-24T07:12:03.510Z,96125.69
2022-11-24T07:13:35.340Z,96126.47
2022-11-24T07:15:08.122Z,96126.22
2022-11-24T07:16:39.942Z,96129.00
2022-11-24T07:18:11.664Z,96134.44
2022-11-24T07:19:44.655Z,96132.66
2022-11-24T07:21:16.420Z,96132.56
2022-11-24T07:22:48.029Z,96134.53
2022-11-24T07:24:19.754Z,96131.44
2022-11-24T07:25:51.384Z,96141.97
2022-11-24T07:27:23.025Z,96133.13
2022-11-24T07:28:54.751Z,96130.91
2022-11-24T07:30:26.682Z,96131.56
2022-11-24T07:32:03.748Z,96132.56
2022-11-24T07:33:37.007Z,96127.50
2022-11-24T07:35:10.082Z,96135.31
2022-11-24T07:36:41.790Z,96136.88
2022-11-24T07:38:13.378Z,96135.31
2022-11-24T07:39:48.067Z,96135.09
2022-11-24T07:41:19.754Z,96134.75
2022-11-24T07:42:51.449Z,96134.88
2022-11-24T07:44:23.070Z,96143.94
2022-11-24T07:45:54.851Z,96143.06
2022-11-24T07:47:26.461Z,96134.00
2022-11-24T07:48:58.131Z,96144.28
2022-11-24T07:50:31.100Z,96141.53
2022-11-24T07:52:02.810Z,96144.63
2022-11-24T07:53:34.598Z,96151.47
2022-11-24T07:55:07.819Z,96144.28
2022-11-24T07:56:39.676Z,96150.94
2022-11-24T07:58:11.285Z,96146.88
2022-11-24T07:59:42.938Z,96143.56
2022-11-24T08:01:15.841Z,96132.06
2022-11-24T08:02:47.526Z,96147.84
2022-11-24T08:04:19.248Z,96138.94
2022-11-24T08:06:22.402Z,96146.25
2022-11-24T08:07:46.891Z,96143.16
2022-11-24T08:09:18.597Z,96151.22
2022-11-24T08:10:50.487Z,96144.69
2022-11-24T08:12:22.124Z,96139.50
2022-11-24T08:13:53.699Z,96141.88
2022-11-24T08:15:25.231Z,96141.16
2022-11-24T08:16:57.770Z,96137.75
2022-11-24T08:18:29.448Z,96143.75
2022-11-24T08:20:01.059Z,96144.06
2022-11-24T08:21:34.309Z,96144.97
2022-11-24T08:23:05.932Z,96148.34
2022-11-24T08:24:38.210Z,96150.69
2022-11-24T08:26:11.819Z,96153.56
2022-11-24T08:27:43.443Z,96154.72
2022-11-24T08:29:15.077Z,96156.25
2022-11-24T08:30:46.717Z,96150.50
2022-11-24T08:32:22.333Z,96158.69
2022-11-24T08:33:55.209Z,96150.72
2022-11-24T08:35:26.909Z,96152.63
2022-11-24T08:36:59.852Z,96158.03
2022-11-24T08:38:31.507Z,96162.13
2022-11-24T08:40:03.335Z,96160.03
2022-11-24T08:41:34.968Z,96170.31
2022-11-24T08:43:06.674Z,96161.03
2022-11-24T08:44:38.361Z,96161.69
2022-11-24T08:46:11.128Z,96170.41
2022-11-24T08:47:42.831Z,96172.84
2022-11-24T08:49:15.224Z,96168.84
2022-11-24T08:50:46.848Z,96171.97
2022-11-24T08:52:19.852Z,96176.56
2022-11-24T08:53:54.293Z,96178.56
2022-11-24T08:55:25.933Z,96176.38
2022-11-24T08:56:57.598Z,96177.59
2022-11-24T08:58:29.379Z,96183.41
2022-11-24T09:00:00.981Z,96186.22
2022-11-24T09:01:32.735Z,96195.63
2022-11-24T09:03:04.469Z,96197.84
2022-11-24T09:04:36.324Z,96200.16
2022-11-24T09:06:09.006Z,96199.28
2022-11-24T09:07:42.038Z,96213.09
2022-11-24T09:09:13.984Z,96211.56
2022-11-24T09:10:45.674Z,96216.09
2022-11-24T09:12:17.303Z,96220.19
2022-11-24T09:13:48.975Z,96220.63
2022-11-24T09:15:20.653Z,96203.22
2022-11-24T09:16:52.404Z,96213.81
2022-11-24T09:18:27.583Z,96212.78
2022-11-24T09:20:01.818Z,96218.88
2022-11-24T09:21:42.823Z,96224.19
2022-11-24T09:23:15.802Z,96219.66
2022-11-24T09:24:47.512Z,96218.53
2022-11-24T09:26:19.779Z,96231.34
2022-11-24T09:27:51.574Z,96227.81
2022-11-24T09:29:23.281Z,96236.41
2022-11-24T09:30:55.188Z,96223.81
2022-11-24T09:32:28.319Z,96235.31
2022-11-24T09:34:00.248Z,96240.63
2022-11-24T09:35:31.883Z,96230.91
2022-11-24T09:37:03.999Z,96237.78
2022-11-24T09:38:36.972Z,96233.56
2022-11-24T09:40:11.623Z,96242.63
2022-11-24T09:41:58.455Z,96243.84
2022-11-24T09:43:33.145Z,96252.25
2022-11-24T09:45:19.961Z,96250.19
2022-11-24T09:47:05.792Z,96250.19
2022-11-24T09:48:38.706Z,96252.72
2022-11-24T09:50:11.866Z,96255.34
2022-11-24T09:51:45.246Z,96247.28
2022-11-24T09:53:19.201Z,96243.53
2022-11-24T09:54:55.774Z,96252.38
2022-11-24T09:56:28.446Z,96251.41
2022-11-24T09:58:06.631Z,96246.88
2022-11-24T09:59:38.283Z,96240.91
2022-11-24T10:01:12.849Z,96255.06
2022-11-24T10:02:44.666Z,96253.34
2022-11-24T10:04:18.463Z,96258.44
2022-11-24T10:05:50.262Z,96257.47
2022-11-24T10:07:22.976Z,96254.28
2022-11-24T10:09:07.674Z,96255.16
2022-11-24T10:10:45.204Z,96262.78
2022-11-24T10:12:22.922Z,96266.59
2022-11-24T10:14:07.586Z,96271.16
2022-11-24T10:15:42.426Z,96277.25
2022-11-24T10:17:20.473Z,96275.38
2022-11-24T10:18:57.382Z,96268.50
2022-11-24T10:20:40.384Z,96267.34
2022-11-24T10:22:23.629Z,96271.72
2022-11-24T10:24:03.527Z,96279.56
2022-11-24T10:25:40.392Z,96277.91
2022-11-24T10:27:17.014Z,96267.16
2022-11-24T10:28:52.347Z,96281.34
2022-11-24T10:30:24.060Z,96267.41
2022-11-24T10:31:56.473Z,96269.50
2022-11-24T10:33:30.812Z,96277.38
2022-11-24T10:35:13.572Z,96278.75
2022-11-24T10:36:47.102Z,96277.19
2022-11-24T10:38:26.982Z,96279.63
2022-11-24T10:40:00.786Z,96280.50
2022-11-24T10:41:38.695Z,96281.06
2022-11-24T10:43:11.938Z,96285.94
2022-11-24T10:44:43.619Z,96278.75
2022-11-24T10:46:16.794Z,96280.28
2022-11-24T10:47:48.780Z,96280.06
2022-11-24T10:49:22.411Z,96276.75
2022-11-24T10:50:54.974Z,96279.84
2022-11-24T10:52:26.975Z,96288.94
2022-11-24T10:54:01.069Z,96285.72
2022-11-24T10:55:57.136Z,96284.16
2022-11-24T10:57:30.602Z,96280.63
2022-11-24T10:59:29.469Z,96285.72
2022-11-24T11:01:02.284Z,96284.94
2022-11-24T11:02:37.315Z,96292.91
2022-11-24T11:04:16.900Z,96288.94
2022-11-24T11:05:50.441Z,96279.84
2022-11-24T11:07:23.595Z,96279.94
2022-11-24T11:09:17.529Z,96289.69
2022-11-24T11:10:49.944Z,96283.91
2022-11-24T11:14:29.287Z,96288.59
2022-11-24T11:16:00.932Z,96292.81
2022-11-24T11:17:36.442Z,96288.69
2022-11-24T11:19:47.942Z,96286.84
2022-11-24T11:21:26.873Z,96287.94
2022-11-24T11:22:59.791Z,96290.38
2022-11-24T11:24:31.396Z,96287.50
2022-11-24T11:26:34.138Z,96278.31
2022-11-24T11:28:26.546Z,96282.19
2022-11-24T11:34:26.772Z,96278.50
2022-11-24T11:36:10.103Z,96272.63
2022-11-24T11:37:41.828Z,96272.09
2022-11-24T11:39:23.387Z,96272.41
2022-11-24T11:40:55.029Z,96276.59
2022-11-24T11:43:01.798Z,96286.69
2022-11-24T11:44:29.069Z,96290.25
2022-11-24T11:46:03.894Z,96282.59
2022-11-24T11:47:38.226Z,96270.22
2022-11-24T11:49:10.158Z,96280.94
2022-11-24T11:51:14.992Z,96285.16
2022-11-24T11:53:06.345Z,96289.81
2022-11-24T11:54:50.055Z,96281.81
2022-11-24T11:56:23.959Z,96287.56
2022-11-24T11:57:58.909Z,96280.16
2022-11-24T11:59:59.080Z,96279.25
2022-11-24T12:01:38.672Z,96280.94
2022-11-24T12:03:39.311Z,96286.56
2022-11-24T12:05:13.082Z,96284.94
2022-11-24T12:07:19.668Z,96279.50
2022-11-24T12:09:19.427Z,96282.25
2022-11-24T12:10:50.558Z,96286.47
2022-11-24T12:12:37.003Z,96292.41
2022-11-24T12:14:14.562Z,96293.28
2022-11-24T12:15:47.484Z,96292.19
2022-11-24T12:17:24.774Z,96298.41
2022-11-24T12:19:02.929Z,96291.78
2022-11-24T12:20:44.041Z,96303.97
2022-11-24T12:22:20.909Z,96296.78
2022-11-24T12:23:57.798Z,96301.53
2022-11-24T12:25:31.155Z,96296.16
2022-11-24T12:27:05.367Z,96288.59
2022-11-24T12:28:42.208Z,96298.13
2022-11-24T12:30:14.156Z,96287.19
2022-11-24T12:31:48.945Z,96286.50
2022-11-24T12:33:40.504Z,96287.19
2022-11-24T12:35:17.110Z,96291.91
2022-11-24T12:36:57.191Z,96281.72
2022-11-24T12:38:35.639Z,96284.88
2022-11-24T12:40:13.207Z,96286.09
2022-11-24T12:41:51.788Z,96295.28
2022-11-24T12:43:27.326Z,96288.31
2022-11-24T12:45:14.483Z,96290.16
2022-11-24T12:46:48.967Z,96294.34
2022-11-24T12:48:29.752Z,96293.28
2022-11-24T12:50:08.149Z,96296.59
2022-11-24T12:51:40.623Z,96292.59
2022-11-24T12:53:13.660Z,96289.09
2022-11-24T12:54:45.265Z,96295.19
2022-11-24T12:56:17.680Z,96303.59
2022-11-24T12:57:52.216Z,96290.06
2022-11-24T12:59:30.583Z,96301.81
2022-11-24T13:03:11.302Z,96295.78
2022-11-24T13:04:46.086Z,96295.09
2022-11-24T13:06:20.662Z,96305.84
2022-11-24T13:07:55.978Z,96301.81
2022-11-24T13:09:27.786Z,96308.28
2022-11-24T13:11:27.445Z,96308.59
2022-11-24T13:12:59.771Z,96305.16
2022-11-24T13:14:31.670Z,96303.34
2022-11-24T13:16:35.098Z,96303.28
2022-11-24T13:18:31.672Z,96310.78
2022-11-24T13:20:16.500Z,96309.91
2022-11-24T13:22:01.061Z,96308.94
2022-11-24T13:23:32.750Z,96314.88
2022-11-24T13:25:13.579Z,96311.88
2022-11-24T13:26:47.296Z,96317.22
2022-11-24T13:29:05.833Z,96316.06
2022-11-24T13:30:54.267Z,96316.19
2022-11-24T13:32:57.381Z,96310.88
2022-11-24T13:34:57.145Z,96310.53
2022-11-24T13:36:33.352Z,96314.16
2022-11-24T13:38:29.782Z,96319.59
2022-11-24T13:40:05.110Z,96312.69
2022-11-24T13:42:03.993Z,96316.31
2022-11-24T13:43:40.772Z,96307.38
2022-11-24T13:45:54.128Z,96316.75
2022-11-24T13:47:36.713Z,96306.06
2022-11-24T13:49:13.823Z,96321.75
2022-11-24T13:51:14.713Z,96325.00
2022-11-24T13:52:47.815Z,96327.09
2022-11-24T13:54:27.786Z,96320.78
2022-11-24T13:56:00.226Z,96328.34
2022-11-24T13:57:35.285Z,96328.84
2022-11-24T13:59:16.474Z,96317.25
2022-11-24T14:01:16.149Z,96320.34
2022-11-24T14:02:48.395Z,96324.34
2022-11-24T14:04:36.057Z,96333.00
2022-11-24T14:06:14.904Z,96319.00
2022-11-24T14:07:47.098Z,96328.84
2022-11-24T14:09:23.615Z,96321.81
2022-11-24T14:10:55.272Z,96315.78
2022-11-24T14:12:31.338Z,96320.06
2022-11-24T14:14:14.731Z,96323.19
2022-11-24T14:15:58.917Z,96330.75
2022-11-24T14:17:31.346Z,96327.78
2022-11-24T14:19:02.960Z,96327.09
2022-11-24T14:20:34.569Z,96332.91
2022-11-24T14:22:06.145Z,96333.44
2022-11-24T14:23:40.945Z,96330.97
2022-11-24T14:25:27.684Z,96329.81
2022-11-24T14:26:59.341Z,96327.16
2022-11-24T14:28:31.013Z,96329.22
2022-11-24T14:30:04.665Z,96331.69
2022-11-24T14:31:36.416Z,96336.25
2022-11-24T14:33:10.703Z,96333.25
2022-11-24T14:34:42.374Z,96333.53
2022-11-24T14:36:14.897Z,96336.34
2022-11-24T14:37:46.502Z,96331.47
2022-11-24T14:39:18.819Z,96336.88
2022-11-24T14:40:52.703Z,96336.47
2022-11-24T14:42:24.986Z,96335.16
2022-11-24T14:44:06.635Z,96332.34
2022-11-24T14:45:38.233Z,96328.44
2022-11-24T14:47:14.883Z,96341.00
2022-11-24T14:48:47.656Z,96341.88
2022-11-24T14:50:19.666Z,96336.44
2022-11-24T14:51:54.299Z,96337.63
2022-11-24T14:53:26.461Z,96347.84
2022-11-24T14:55:07.525Z,96335.63
2022-11-24T14:57:05.858Z,96336.75
2022-11-24T14:58:42.009Z,96340.28
2022-11-24T15:00:19.315Z,96322.41
2022-11-24T15:01:50.998Z,96331.31
2022-11-24T15:03:22.625Z,96339.75
2022-11-24T15:05:03.325Z,96337.78
2022-11-24T15:06:35.697Z,96332.69
2022-11-24T15:08:10.972Z,96341.84
2022-11-24T15:09:49.966Z,96335.53
2022-11-24T15:11:21.843Z,96332.44
2022-11-24T15:12:56.391Z,96334.56
2022-11-24T15:14:34.533Z,96319.63
2022-11-24T15:16:07.838Z,96337.56
2022-11-24T15:17:45.302Z,96335.00
2022-11-24T15:19:16.977Z,96332.38
2022-11-24T15:20:48.596Z,96335.34
2022-11-24T15:22:37.888Z,96321.72
2022-11-24T15:24:15.913Z,96331.59
2022-11-24T15:25:47.586Z,96325.81
2022-11-24T15:27:19.219Z,96330.38
2022-11-24T15:28:52.165Z,96324.94
2022-11-24T15:30:24.063Z,96331.03
2022-11-24T15:31:55.732Z,96325.28
2022-11-24T15:33:27.615Z,96328.38
2022-11-24T15:34:59.351Z,96327.59
2022-11-24T15:36:31.005Z,96323.75
2022-11-24T15:38:02.710Z,96324.38
2022-11-24T15:39:34.421Z,96312.75
2022-11-24T15:41:14.102Z,96321.84
2022-11-24T15:42:49.339Z,96318.41
2022-11-24T15:44:22.321Z,96319.84
2022-11-24T15:45:53.933Z,96320.84
2022-11-24T15:47:25.558Z,96316.41
2022-11-24T15:48:57.303Z,96321.50
2022-11-24T15:50:28.926Z,96320.63
2022-11-24T15:52:00.775Z,96313.75
2022-11-24T15:53:33.354Z,96312.41
2022-11-24T15:55:05.873Z,96321.41
2022-11-24T15:56:38.858Z,96318.06
2022-11-24T15:58:11.489Z,96327.59
2022-11-24T15:59:44.542Z,96319.19
2022-11-24T16:01:16.211Z,96309.78
2022-11-24T16:02:47.893Z,96310.00
2022-11-24T16:04:19.561Z,96322.41
2022-11-24T16:05:52.585Z,96324.63
2022-11-24T16:07:24.232Z,96323.91
2022-11-24T16:08:56.087Z,96318.84
2022-11-24T16:10:30.041Z,96325.03
2022-11-24T16:12:03.714Z,96317.94
2022-11-24T16:13:35.341Z,96329.69
2022-11-24T16:15:09.657Z,96322.16
2022-11-24T16:16:41.823Z,96326.34
2022-11-24T16:18:14.057Z,96334.53
2022-11-24T16:19:45.689Z,96322.38
2022-11-24T16:21:17.278Z,96332.44
2022-11-24T16:22:48.964Z,96327.25
2022-11-24T16:24:20.625Z,96332.56
2022-11-24T16:25:52.327Z,96335.88
2022-11-24T16:27:24.047Z,96326.91
2022-11-24T16:28:55.687Z,96334.09
2022-11-24T16:30:28.860Z,96335.94
2022-11-24T16:32:00.492Z,96333.47
2022-11-24T16:33:32.167Z,96334.59
2022-11-24T16:35:04.139Z,96329.72
2022-11-24T16:36:35.764Z,96327.38
2022-11-24T16:38:09.199Z,96331.38
2022-11-24T16:39:44.486Z,96336.22
2022-11-24T16:41:21.686Z,96331.44
2022-11-24T16:42:53.297Z,96328.06
2022-11-24T16:44:24.935Z,96336.00
2022-11-24T16:46:16.111Z,96333.66
2022-11-24T16:47:49.633Z,96331.66
2022-11-24T16:49:21.342Z,96337.88
2022-11-24T16:50:53.060Z,96330.88
2022-11-24T16:52:24.662Z,96331.31
2022-11-24T16:53:57.280Z,96335.53
2022-11-24T16:55:28.901Z,96340.00
2022-11-24T16:57:00.545Z,96330.34
2022-11-24T16:58:32.146Z,96344.94
2022-11-24T17:00:04.535Z,96336.38
2022-11-24T17:01:40.052Z,96337.22
2022-11-24T17:03:11.740Z,96349.84
2022-11-24T17:04:43.393Z,96337.47
2022-11-24T17:06:16.095Z,96337.69
2022-11-24T17:07:47.731Z,96338.47
2022-11-24T17:09:19.386Z,96328.16
2022-11-24T17:10:50.970Z,96327.69
2022-11-24T17:12:22.598Z,96326.13
2022-11-24T17:13:54.258Z,96324.72
2022-11-24T17:15:32.960Z,96328.97
2022-11-24T17:17:08.677Z,96326.22
2022-11-24T17:18:40.343Z,96331.03
2022-11-24T17:20:12.558Z,96331.53
2022-11-24T17:21:44.193Z,96330.75
2022-11-24T17:23:15.986Z,96334.16
2022-11-24T17:24:47.633Z,96336.38
2022-11-24T17:26:19.415Z,96341.06
2022-11-24T17:27:51.673Z,96336.69
2022-11-24T17:29:23.487Z,96333.91
2022-11-24T17:30:56.233Z,96341.38
2022-11-24T17:32:29.258Z,96344.94
2022-11-24T17:34:01.218Z,96343.25
2022-11-24T17:35:33.674Z,96344.38
2022-11-24T17:37:05.289Z,96338.25
2022-11-24T17:38:37.024Z,96349.47
2022-11-24T17:40:29.999Z,96342.94
2022-11-24T17:42:01.007Z,96347.00
2022-11-24T17:43:32.736Z,96339.41
2022-11-24T17:45:04.993Z,96347.22
2022-11-24T17:46:37.244Z,96345.38
2022-11-24T17:48:10.309Z,96337.69
2022-11-24T17:49:41.930Z,96347.47
2022-11-24T17:51:14.865Z,96334.41
2022-11-24T17:52:46.455Z,96335.78
2022-11-24T17:54:45.388Z,96335.66
2022-11-24T17:56:12.216Z,96334.91
2022-11-24T17:57:43.825Z,96337.91
2022-11-24T17:59:15.452Z,96330.94
2022-11-24T18:00:49.577Z,96335.69
2022-11-24T18:02:21.342Z,96336.06
2022-11-24T18:03:54.454Z,96335.59
2022-11-24T18:05:26.058Z,96332.16
2022-11-24T18:06:57.623Z,96322.34
2022-11-24T18:08:29.188Z,96321.59
2022-11-24T18:10:00.882Z,96321.28
2022-11-24T18:11:32.605Z,96313.19
2022-11-24T18:13:04.222Z,96325.34
2022-11-24T18:14:36.169Z,96318.66
2022-11-24T18:16:08.970Z,96316.44
2022-11-24T18:17:40.582Z,96317.84
2022-11-24T18:19:13.636Z,96315.81
2022-11-24T18:20:53.574Z,96313.50
2022-11-24T18:22:50.063Z,96313.66
2022-11-24T18:24:21.130Z,96317.72
2022-11-24T18:25:55.905Z,96315.84
2022-11-24T18:27:27.510Z,96310.84
2022-11-24T18:28:59.081Z,96313.97
2022-11-24T18:30:30.778Z,96309.59
2022-11-24T18:32:02.425Z,96308.53
2022-11-24T18:33:36.245Z,96309.31
2022-11-24T18:35:09.696Z,96300.56
2022-11-24T18:36:41.328Z,96298.72
2022-11-24T18:38:12.998Z,96303.84